Main page
METAR-TAF:

METAR-TAF

Airports :

Piacenza, Italy

Piacenza Air Base

latitude: 44-55N, longitude: 009-44E, elevation: 134 m

Current weather observation

The report was made 6 hours and 1 minutes ago, at 17:55 UTC
Wind 9 kt from the East/Southeast
Temperature 5°C
Humidity 100%
Pressure 1019 hPa
Visibility 10 km or more
Scattered clouds at a height of 2500 ft
Broken clouds at a height of 8000 ft
light rain

METAR: LIMS 181755Z 12009KT 9999 -RA SCT025 BKN080 05/05 Q1019 RMK OVC VIS MIN 9999 WIND THR30 10008KT BLU

Time: 00:56 (23:56 UTC)


TAF: missing

Weather observations and forecasts of more than 4000 airports (METAR and TAF reports).

The available stations are represented by yellow and red dots on the map.

Hover mouse over dot to see the name of the station.

Then click to see weather observations and forecasts.

To change the map : click on the green buttons with a black cross to zoom in, on the green button with a dash to zoom out, or on the green arrows for adjacent maps.


METAR-TAF: